sensor_id;sensor_type;location;lat;lon;timestamp;pressure;altitude;pressure_sealevel;temperature;humidity
7170;BME280;3626;42.656;23.312;2023-05-16T00:00:04;94276.66;;;12.94;100.00
7170;BME280;3626;42.656;23.312;2023-05-16T00:00:12;94273.25;;;12.93;100.00
7170;BME280;3626;42.656;23.312;2023-05-16T00:00:18;94274.84;;;12.94;100.00
7170;BME280;3626;42.656;23.312;2023-05-16T00:00:24;94274.84;;;12.94;100.00
7170;BME280;3626;42.656;23.312;2023-05-16T00:00:31;94270.66;;;12.93;100.00
7170;BME280;3626;42.656;23.312;2023-05-16T00:00:39;94279.25;;;12.94;100.00
7170;BME280;3626;42.656;23.312;2023-05-16T00:00:46;94276.66;;;12.94;100.00
7170;BME280;3626;42.656;23.312;2023-05-16T00:00:53;94275.84;;;12.93;100.00
7170;BME280;3626;42.656;23.312;2023-05-16T00:01:03;94270.88;;;12.92;100.00
7170;BME280;3626;42.656;23.312;2023-05-16T00:01:09;94275.84;;;12.93;100.00
7170;BME280;3626;42.656;23.312;2023-05-16T00:01:15;94278.44;;;12.93;100.00
7170;BME280;3626;42.656;23.312;2023-05-16T00:01:21;94270.66;;;12.93;100.00
7170;BME280;3626;42.656;23.312;2023-05-16T00:01:27;94268.09;;;12.93;100.00
7170;BME280;3626;42.656;23.312;2023-05-16T00:01:34;94266.50;;;12.92;100.00
7170;BME280;3626;42.656;23.312;2023-05-16T00:01:40;94278.44;;;12.93;100.00
7170;BME280;3626;42.656;23.312;2023-05-16T00:01:46;94275.84;;;12.93;100.00
7170;BME280;3626;42.656;23.312;2023-05-16T00:01:52;94264.91;;;12.91;100.00
7170;BME280;3626;42.656;23.312;2023-05-16T00:01:59;94270.88;;;12.92;100.00
7170;BME280;3626;42.656;23.312;2023-05-16T00:02:05;94275.84;;;12.93;100.00
7170;BME280;3626;42.656;23.312;2023-05-16T00:02:11;94275.06;;;12.93;100.00
7170;BME280;3626;42.656;23.312;2023-05-16T00:02:20;94270.66;;;12.93;100.00
7170;BME280;3626;42.656;23.312;2023-05-16T00:02:26;94268.09;;;12.93;100.00
7170;BME280;3626;42.656;23.312;2023-05-16T00:02:32;94270.66;;;12.93;100.00
7170;BME280;3626;42.656;23.312;2023-05-16T00:02:38;94270.66;;;12.93;100.00
7170;BME280;3626;42.656;23.312;2023-05-16T00:02:44;94271.47;;;12.94;100.00
7170;BME280;3626;42.656;23.312;2023-05-16T00:02:50;94265.50;;;12.93;100.00
7170;BME280;3626;42.656;23.312;2023-05-16T00:02:56;94274.06;;;12.94;100.00
7170;BME280;3626;42.656;23.312;2023-05-16T00:03:03;94273.25;;;12.93;100.00
7170;BME280;3626;42.656;23.312;2023-05-16T00:03:09;94274.06;;;12.94;100.00
7170;BME280;3626;42.656;23.312;2023-05-16T00:03:16;94274.06;;;12.94;100.00
7170;BME280;3626;42.656;23.312;2023-05-16T00:03:22;94274.84;;;12.94;100.00
7170;BME280;3626;42.656;23.312;2023-05-16T00:03:28;94268.09;;;12.93;100.00
7170;BME280;3626;42.656;23.312;2023-05-16T00:03:35;94273.25;;;12.93;100.00
7170;BME280;3626;42.656;23.312;2023-05-16T00:03:42;94271.47;;;12.94;100.00
7170;BME280;3626;42.656;23.312;2023-05-16T00:03:49;94266.50;;;12.92;100.00
7170;BME280;3626;42.656;23.312;2023-05-16T00:03:55;94274.06;;;12.94;100.00
7170;BME280;3626;42.656;23.312;2023-05-16T00:04:02;94268.88;;;12.94;100.00
7170;BME280;3626;42.656;23.312;2023-05-16T00:04:08;94262.91;;;12.93;100.00
7170;BME280;3626;42.656;23.312;2023-05-16T00:04:14;94265.28;;;12.95;100.00
7170;BME280;3626;42.656;23.312;2023-05-16T00:04:20;94269.69;;;12.94;100.00
7170;BME280;3626;42.656;23.312;2023-05-16T00:04:27;94269.69;;;12.94;100.00
7170;BME280;3626;42.656;23.312;2023-05-16T00:04:34;94269.69;;;12.94;100.00
7170;BME280;3626;42.656;23.312;2023-05-16T00:04:41;94265.50;;;12.93;100.00
7170;BME280;3626;42.656;23.312;2023-05-16T00:04:47;94271.28;;;12.95;100.00
7170;BME280;3626;42.656;23.312;2023-05-16T00:04:53;94271.47;;;12.94;100.00
7170;BME280;3626;42.656;23.312;2023-05-16T00:04:59;94269.69;;;12.94;100.00
7170;BME280;3626;42.656;23.312;2023-05-16T00:05:06;94266.28;;;12.94;100.00
7170;BME280;3626;42.656;23.312;2023-05-16T00:05:12;94264.50;;;12.94;100.00
7170;BME280;3626;42.656;23.312;2023-05-16T00:05:19;94268.88;;;12.94;100.00
7170;BME280;3626;42.656;23.312;2023-05-16T00:05:25;94269.69;;;12.94;100.00
7170;BME280;3626;42.656;23.312;2023-05-16T00:05:31;94266.28;;;12.94;100.00
7170;BME280;3626;42.656;23.312;2023-05-16T00:05:37;94267.28;;;12.93;100.00
7170;BME280;3626;42.656;23.312;2023-05-16T00:05:43;94265.28;;;12.95;100.00
7170;BME280;3626;42.656;23.312;2023-05-16T00:05:50;94269.69;;;12.94;100.00
7170;BME280;3626;42.656;23.312;2023-05-16T00:05:56;94265.50;;;12.93;100.00
7170;BME280;3626;42.656;23.312;2023-05-16T00:06:03;94269.06;;;12.92;100.00
7170;BME280;3626;42.656;23.312;2023-05-16T00:06:10;94264.91;;;12.91;100.00
7170;BME280;3626;42.656;23.312;2023-05-16T00:06:16;94262.31;;;12.91;100.00
7170;BME280;3626;42.656;23.312;2023-05-16T00:06:22;94272.03;;;12.89;100.00
7170;BME280;3626;42.656;23.312;2023-05-16T00:06:30;94273.03;;;12.88;100.00
7170;BME280;3626;42.656;23.312;2023-05-16T00:06:36;94273.19;;;12.87;100.00
7170;BME280;3626;42.656;23.312;2023-05-16T00:06:42;94267.06;;;12.88;100.00
7170;BME280;3626;42.656;23.312;2023-05-16T00:06:48;94263.84;;;12.86;100.00
7170;BME280;3626;42.656;23.312;2023-05-16T00:06:54;94263.03;;;12.85;100.00
7170;BME280;3626;42.656;23.312;2023-05-16T00:07:00;94263.84;;;12.86;100.00
7170;BME280;3626;42.656;23.312;2023-05-16T00:07:06;94262.25;;;12.85;100.00
7170;BME280;3626;42.656;23.312;2023-05-16T00:07:12;94264.03;;;12.84;100.00
7170;BME280;3626;42.656;23.312;2023-05-16T00:07:18;94267.44;;;12.85;100.00
7170;BME280;3626;42.656;23.312;2023-05-16T00:07:24;94267.44;;;12.85;100.00
7170;BME280;3626;42.656;23.312;2023-05-16T00:07:31;94265.03;;;12.83;100.00
7170;BME280;3626;42.656;23.312;2023-05-16T00:07:38;94267.63;;;12.83;100.00
7170;BME280;3626;42.656;23.312;2023-05-16T00:07:45;94266.00;;;12.82;100.00
7170;BME280;3626;42.656;23.312;2023-05-16T00:07:54;94268.59;;;12.82;100.00
7170;BME280;3626;42.656;23.312;2023-05-16T00:08:02;94271.97;;;12.83;100.00
7170;BME280;3626;42.656;23.312;2023-05-16T00:08:08;94273.78;;;12.82;100.00
7170;BME280;3626;42.656;23.312;2023-05-16T00:08:14;94266.00;;;12.82;100.00
7170;BME280;3626;42.656;23.312;2023-05-16T00:08:20;94266.81;;;12.83;100.00
7170;BME280;3626;42.656;23.312;2023-05-16T00:08:26;94271.19;;;12.82;100.00
7170;BME280;3626;42.656;23.312;2023-05-16T00:08:32;94269.59;;;12.81;100.00
7170;BME280;3626;42.656;23.312;2023-05-16T00:08:38;94266.00;;;12.82;100.00
7170;BME280;3626;42.656;23.312;2023-05-16T00:08:45;94266.81;;;12.83;100.00
7170;BME280;3626;42.656;23.312;2023-05-16T00:08:51;94266.81;;;12.83;100.00
7170;BME280;3626;42.656;23.312;2023-05-16T00:08:57;94266.81;;;12.83;100.00
7170;BME280;3626;42.656;23.312;2023-05-16T00:09:03;94267.63;;;12.83;100.00
7170;BME280;3626;42.656;23.312;2023-05-16T00:09:09;94264.41;;;12.81;100.00
7170;BME280;3626;42.656;23.312;2023-05-16T00:09:15;94268.00;;;12.80;100.00
7170;BME280;3626;42.656;23.312;2023-05-16T00:09:21;94267.78;;;12.82;100.00
7170;BME280;3626;42.656;23.312;2023-05-16T00:09:30;94266.41;;;12.79;100.00
7170;BME280;3626;42.656;23.312;2023-05-16T00:09:36;94263.81;;;12.79;100.00
7170;BME280;3626;42.656;23.312;2023-05-16T00:09:42;94263.59;;;12.81;100.00
7170;BME280;3626;42.656;23.312;2023-05-16T00:09:48;94265.41;;;12.80;100.00
7170;BME280;3626;42.656;23.312;2023-05-16T00:09:54;94265.41;;;12.80;100.00
7170;BME280;3626;42.656;23.312;2023-05-16T00:10:01;94265.19;;;12.82;100.00
7170;BME280;3626;42.656;23.312;2023-05-16T00:10:08;94268.78;;;12.81;100.00
7170;BME280;3626;42.656;23.312;2023-05-16T00:10:14;94266.00;;;12.82;100.00
7170;BME280;3626;42.656;23.312;2023-05-16T00:10:20;94270.38;;;12.82;100.00
7170;BME280;3626;42.656;23.312;2023-05-16T00:10:26;94265.41;;;12.80;100.00
7170;BME280;3626;42.656;23.312;2023-05-16T00:10:32;94267.19;;;12.80;100.00
7170;BME280;3626;42.656;23.312;2023-05-16T00:10:38;94265.59;;;12.79;100.00
7170;BME280;3626;42.656;23.312;2023-05-16T00:10:44;94266.75;;;12.76;100.00
7170;BME280;3626;42.656;23.312;2023-05-16T00:10:50;94271.16;;;12.75;100.00
7170;BME280;3626;42.656;23.312;2023-05-16T00:10:58;94264.38;;;12.74;100.00
7170;BME280;3626;42.656;23.312;2023-05-16T00:11:07;94270.53;;;12.73;100.00
7170;BME280;3626;42.656;23.312;2023-05-16T00:11:13;94263.16;;;12.70;100.00
7170;BME280;3626;42.656;23.312;2023-05-16T00:11:19;94267.50;;;12.70;100.00
7170;BME280;3626;42.656;23.312;2023-05-16T00:11:26;94262.31;;;12.70;100.00
7170;BME280;3626;42.656;23.312;2023-05-16T00:11:32;94267.50;;;12.70;100.00
7170;BME280;3626;42.656;23.312;2023-05-16T00:11:38;94267.50;;;12.70;100.00
7170;BME280;3626;42.656;23.312;2023-05-16T00:11:44;94265.09;;;12.68;100.00
7170;BME280;3626;42.656;23.312;2023-05-16T00:11:52;94267.09;;;12.66;100.00
7170;BME280;3626;42.656;23.312;2023-05-16T00:11:58;94267.09;;;12.66;100.00
7170;BME280;3626;42.656;23.312;2023-05-16T00:12:05;94257.72;;;12.65;100.00
7170;BME280;3626;42.656;23.312;2023-05-16T00:12:11;94268.06;;;12.65;100.00
7170;BME280;3626;42.656;23.312;2023-05-16T00:12:17;94262.09;;;12.65;100.00
7170;BME280;3626;42.656;23.312;2023-05-16T00:12:24;94263.88;;;12.64;100.00
7170;BME280;3626;42.656;23.312;2023-05-16T00:12:30;94265.69;;;12.64;100.00
7170;BME280;3626;42.656;23.312;2023-05-16T00:12:38;94266.47;;;12.64;100.00
7170;BME280;3626;42.656;23.312;2023-05-16T00:12:47;94266.47;;;12.64;100.00
7170;BME280;3626;42.656;23.312;2023-05-16T00:12:56;94266.31;;;12.66;100.00
7170;BME280;3626;42.656;23.312;2023-05-16T00:13:02;94259.50;;;12.65;100.00
7170;BME280;3626;42.656;23.312;2023-05-16T00:13:08;94266.31;;;12.66;100.00
7170;BME280;3626;42.656;23.312;2023-05-16T00:13:16;94263.72;;;12.66;100.00
7170;BME280;3626;42.656;23.312;2023-05-16T00:13:27;94266.31;;;12.66;100.00
7170;BME280;3626;42.656;23.312;2023-05-16T00:13:34;94267.09;;;12.66;100.00
7170;BME280;3626;42.656;23.312;2023-05-16T00:13:40;94260.13;;;12.67;100.00
7170;BME280;3626;42.656;23.312;2023-05-16T00:13:46;94262.72;;;12.67;100.00
7170;BME280;3626;42.656;23.312;2023-05-16T00:13:53;94267.91;;;12.67;100.00
7170;BME280;3626;42.656;23.312;2023-05-16T00:13:59;94264.31;;;12.68;100.00
7170;BME280;3626;42.656;23.312;2023-05-16T00:14:06;94269.50;;;12.68;100.00
7170;BME280;3626;42.656;23.312;2023-05-16T00:14:12;94262.72;;;12.67;100.00
7170;BME280;3626;42.656;23.312;2023-05-16T00:14:19;94268.69;;;12.67;100.00
7170;BME280;3626;42.656;23.312;2023-05-16T00:14:26;94261.91;;;12.66;100.00
7170;BME280;3626;42.656;23.312;2023-05-16T00:14:32;94258.53;;;12.66;100.00
7170;BME280;3626;42.656;23.312;2023-05-16T00:14:39;94267.91;;;12.67;100.00
7170;BME280;3626;42.656;23.312;2023-05-16T00:14:46;94264.31;;;12.68;100.00
7170;BME280;3626;42.656;23.312;2023-05-16T00:14:52;94262.72;;;12.67;100.00
7170;BME280;3626;42.656;23.312;2023-05-16T00:14:58;94268.69;;;12.67;100.00
7170;BME280;3626;42.656;23.312;2023-05-16T00:15:05;94264.50;;;12.66;100.00
7170;BME280;3626;42.656;23.312;2023-05-16T00:15:12;94264.50;;;12.66;100.00
7170;BME280;3626;42.656;23.312;2023-05-16T00:15:19;94261.91;;;12.66;100.00
7170;BME280;3626;42.656;23.312;2023-05-16T00:15:25;94261.72;;;12.68;100.00
7170;BME280;3626;42.656;23.312;2023-05-16T00:15:31;94261.91;;;12.66;100.00
7170;BME280;3626;42.656;23.312;2023-05-16T00:15:37;94254.16;;;12.66;100.00
7170;BME280;3626;42.656;23.312;2023-05-16T00:15:46;94262.72;;;12.67;100.00
7170;BME280;3626;42.656;23.312;2023-05-16T00:15:52;94261.91;;;12.66;100.00
7170;BME280;3626;42.656;23.312;2023-05-16T00:15:59;94261.91;;;12.66;100.00
7170;BME280;3626;42.656;23.312;2023-05-16T00:16:07;94260.13;;;12.67;100.00
7170;BME280;3626;42.656;23.312;2023-05-16T00:16:13;94253.34;;;12.66;100.00
7170;BME280;3626;42.656;23.312;2023-05-16T00:16:22;94260.28;;;12.65;100.00
7170;BME280;3626;42.656;23.312;2023-05-16T00:16:30;94262.72;;;12.67;100.00
7170;BME280;3626;42.656;23.312;2023-05-16T00:16:36;94261.13;;;12.66;100.00
7170;BME280;3626;42.656;23.312;2023-05-16T00:16:42;94262.72;;;12.67;100.00
7170;BME280;3626;42.656;23.312;2023-05-16T00:16:48;94257.53;;;12.67;100.00
7170;BME280;3626;42.656;23.312;2023-05-16T00:16:54;94261.91;;;12.66;100.00
7170;BME280;3626;42.656;23.312;2023-05-16T00:17:03;94263.72;;;12.66;100.00
7170;BME280;3626;42.656;23.312;2023-05-16T00:17:15;94264.31;;;12.68;100.00
7170;BME280;3626;42.656;23.312;2023-05-16T00:17:22;94258.34;;;12.67;100.00
7170;BME280;3626;42.656;23.312;2023-05-16T00:17:28;94254.94;;;12.67;100.00
7170;BME280;3626;42.656;23.312;2023-05-16T00:17:34;94262.72;;;12.67;100.00
7170;BME280;3626;42.656;23.312;2023-05-16T00:17:40;94260.94;;;12.67;100.00
7170;BME280;3626;42.656;23.312;2023-05-16T00:17:51;94260.13;;;12.67;100.00
7170;BME280;3626;42.656;23.312;2023-05-16T00:17:57;94262.72;;;12.67;100.00
7170;BME280;3626;42.656;23.312;2023-05-16T00:18:03;94257.53;;;12.67;100.00
7170;BME280;3626;42.656;23.312;2023-05-16T00:18:09;94263.50;;;12.67;100.00
7170;BME280;3626;42.656;23.312;2023-05-16T00:18:20;94257.53;;;12.67;100.00
7170;BME280;3626;42.656;23.312;2023-05-16T00:18:29;94261.91;;;12.66;100.00
7170;BME280;3626;42.656;23.312;2023-05-16T00:18:35;94255.75;;;12.67;100.00
7170;BME280;3626;42.656;23.312;2023-05-16T00:18:42;94255.75;;;12.67;100.00
7170;BME280;3626;42.656;23.312;2023-05-16T00:18:50;94253.16;;;12.67;100.00
7170;BME280;3626;42.656;23.312;2023-05-16T00:18:57;94257.53;;;12.67;100.00
7170;BME280;3626;42.656;23.312;2023-05-16T00:19:04;94258.34;;;12.67;100.00
7170;BME280;3626;42.656;23.312;2023-05-16T00:19:11;94260.13;;;12.67;100.00
7170;BME280;3626;42.656;23.312;2023-05-16T00:19:19;94259.13;;;12.68;100.00
7170;BME280;3626;42.656;23.312;2023-05-16T00:19:25;94264.31;;;12.68;100.00
7170;BME280;3626;42.656;23.312;2023-05-16T00:19:33;94257.53;;;12.67;100.00
7170;BME280;3626;42.656;23.312;2023-05-16T00:19:40;94253.16;;;12.67;100.00
7170;BME280;3626;42.656;23.312;2023-05-16T00:19:46;94258.34;;;12.67;100.00
7170;BME280;3626;42.656;23.312;2023-05-16T00:19:55;94259.94;;;12.68;100.00
7170;BME280;3626;42.656;23.312;2023-05-16T00:20:03;94255.56;;;12.69;100.00
7170;BME280;3626;42.656;23.312;2023-05-16T00:20:15;94264.91;;;12.70;100.00
7170;BME280;3626;42.656;23.312;2023-05-16T00:20:23;94259.72;;;12.70;100.00
7170;BME280;3626;42.656;23.312;2023-05-16T00:20:29;94260.13;;;12.67;100.00
7170;BME280;3626;42.656;23.312;2023-05-16T00:20:36;94263.50;;;12.67;100.00
7170;BME280;3626;42.656;23.312;2023-05-16T00:20:45;94257.53;;;12.67;100.00
7170;BME280;3626;42.656;23.312;2023-05-16T00:20:51;94262.88;;;12.65;100.00
7170;BME280;3626;42.656;23.312;2023-05-16T00:20:58;94254.31;;;12.65;100.00
7170;BME280;3626;42.656;23.312;2023-05-16T00:21:04;94253.72;;;12.63;100.00
7170;BME280;3626;42.656;23.312;2023-05-16T00:21:10;94259.69;;;12.63;100.00
7170;BME280;3626;42.656;23.312;2023-05-16T00:21:16;94259.69;;;12.63;100.00
7170;BME280;3626;42.656;23.312;2023-05-16T00:21:23;94260.69;;;12.62;100.00
7170;BME280;3626;42.656;23.312;2023-05-16T00:21:29;94254.72;;;12.62;100.00
7170;BME280;3626;42.656;23.312;2023-05-16T00:21:36;94259.91;;;12.62;100.00
7170;BME280;3626;42.656;23.312;2023-05-16T00:21:42;94259.91;;;12.62;100.00
7170;BME280;3626;42.656;23.312;2023-05-16T00:21:49;94261.50;;;12.63;100.00
7170;BME280;3626;42.656;23.312;2023-05-16T00:21:55;94258.09;;;12.62;100.00
7170;BME280;3626;42.656;23.312;2023-05-16T00:22:01;94260.69;;;12.62;100.00
7170;BME280;3626;42.656;23.312;2023-05-16T00:22:10;94258.91;;;12.63;100.00
7170;BME280;3626;42.656;23.312;2023-05-16T00:22:16;94256.31;;;12.63;100.00
7170;BME280;3626;42.656;23.312;2023-05-16T00:22:23;94259.69;;;12.63;100.00
7170;BME280;3626;42.656;23.312;2023-05-16T00:22:29;94263.09;;;12.64;100.00
7170;BME280;3626;42.656;23.312;2023-05-16T00:22:35;94257.91;;;12.64;100.00
7170;BME280;3626;42.656;23.312;2023-05-16T00:22:41;94264.69;;;12.65;100.00
7170;BME280;3626;42.656;23.312;2023-05-16T00:22:47;94257.72;;;12.65;100.00
7170;BME280;3626;42.656;23.312;2023-05-16T00:22:53;94260.28;;;12.65;100.00
7170;BME280;3626;42.656;23.312;2023-05-16T00:22:59;94261.13;;;12.66;100.00
7170;BME280;3626;42.656;23.312;2023-05-16T00:23:05;94262.72;;;12.67;100.00
7170;BME280;3626;42.656;23.312;2023-05-16T00:23:11;94255.94;;;12.66;100.00
7170;BME280;3626;42.656;23.312;2023-05-16T00:23:17;94262.72;;;12.67;100.00
7170;BME280;3626;42.656;23.312;2023-05-16T00:23:23;94261.91;;;12.66;100.00
7170;BME280;3626;42.656;23.312;2023-05-16T00:23:30;94259.94;;;12.68;100.00
7170;BME280;3626;42.656;23.312;2023-05-16T00:23:36;94256.53;;;12.68;100.00
7170;BME280;3626;42.656;23.312;2023-05-16T00:23:43;94260.72;;;12.69;100.00
7170;BME280;3626;42.656;23.312;2023-05-16T00:23:49;94260.72;;;12.69;100.00
7170;BME280;3626;42.656;23.312;2023-05-16T00:23:55;94258.13;;;12.69;100.00
7170;BME280;3626;42.656;23.312;2023-05-16T00:24:02;94261.53;;;12.69;100.00
7170;BME280;3626;42.656;23.312;2023-05-16T00:24:08;94260.72;;;12.69;100.00
7170;BME280;3626;42.656;23.312;2023-05-16T00:24:15;94254.75;;;12.68;100.00
7170;BME280;3626;42.656;23.312;2023-05-16T00:24:21;94258.13;;;12.69;100.00
7170;BME280;3626;42.656;23.312;2023-05-16T00:24:27;94257.34;;;12.68;100.00
7170;BME280;3626;42.656;23.312;2023-05-16T00:24:33;94259.94;;;12.68;100.00
7170;BME280;3626;42.656;23.312;2023-05-16T00:24:39;94259.94;;;12.68;100.00
7170;BME280;3626;42.656;23.312;2023-05-16T00:24:45;94255.56;;;12.69;100.00
7170;BME280;3626;42.656;23.312;2023-05-16T00:24:51;94258.13;;;12.69;100.00
7170;BME280;3626;42.656;23.312;2023-05-16T00:24:57;94261.53;;;12.69;100.00
7170;BME280;3626;42.656;23.312;2023-05-16T00:25:04;94258.78;;;12.71;100.00
7170;BME280;3626;42.656;23.312;2023-05-16T00:25:13;94257.16;;;12.70;100.00
7170;BME280;3626;42.656;23.312;2023-05-16T00:25:20;94263.16;;;12.70;100.00
7170;BME280;3626;42.656;23.312;2023-05-16T00:25:26;94265.53;;;12.72;100.00
7170;BME280;3626;42.656;23.312;2023-05-16T00:25:32;94259.56;;;12.71;100.00
7170;BME280;3626;42.656;23.312;2023-05-16T00:25:38;94255.19;;;12.72;100.00
7170;BME280;3626;42.656;23.312;2023-05-16T00:25:45;94255.19;;;12.72;100.00
7170;BME280;3626;42.656;23.312;2023-05-16T00:25:51;94255.19;;;12.72;100.00
7170;BME280;3626;42.656;23.312;2023-05-16T00:25:57;94260.97;;;12.74;100.00
7170;BME280;3626;42.656;23.312;2023-05-16T00:26:03;94256.78;;;12.73;100.00
7170;BME280;3626;42.656;23.312;2023-05-16T00:26:09;94258.38;;;12.74;100.00
7170;BME280;3626;42.656;23.312;2023-05-16T00:26:15;94259.38;;;12.73;100.00
7170;BME280;3626;42.656;23.312;2023-05-16T00:26:21;94253.19;;;12.74;100.00
7170;BME280;3626;42.656;23.312;2023-05-16T00:26:29;94260.97;;;12.74;100.00
7170;BME280;3626;42.656;23.312;2023-05-16T00:26:36;94261.78;;;12.74;100.00
7170;BME280;3626;42.656;23.312;2023-05-16T00:26:42;94252.41;;;12.73;100.00
7170;BME280;3626;42.656;23.312;2023-05-16T00:26:48;94263.56;;;12.74;100.00
7170;BME280;3626;42.656;23.312;2023-05-16T00:26:54;94257.56;;;12.73;100.00
7170;BME280;3626;42.656;23.312;2023-05-16T00:27:00;94252.41;;;12.73;100.00
7170;BME280;3626;42.656;23.312;2023-05-16T00:27:08;94258.38;;;12.74;100.00
7170;BME280;3626;42.656;23.312;2023-05-16T00:27:14;94258.38;;;12.74;100.00
7170;BME280;3626;42.656;23.312;2023-05-16T00:27:20;94253.19;;;12.74;100.00
7170;BME280;3626;42.656;23.312;2023-05-16T00:27:26;94260.16;;;12.73;100.00
7170;BME280;3626;42.656;23.312;2023-05-16T00:27:33;94254.19;;;12.73;100.00
7170;BME280;3626;42.656;23.312;2023-05-16T00:27:39;94257.78;;;12.72;100.00
7170;BME280;3626;42.656;23.312;2023-05-16T00:27:53;94260.34;;;12.72;100.00
7170;BME280;3626;42.656;23.312;2023-05-16T00:27:59;94263.16;;;12.70;100.00
7170;BME280;3626;42.656;23.312;2023-05-16T00:28:06;94258.94;;;12.69;100.00
7170;BME280;3626;42.656;23.312;2023-05-16T00:28:13;94263.31;;;12.69;100.00
7170;BME280;3626;42.656;23.312;2023-05-16T00:28:19;94258.13;;;12.69;100.00
7170;BME280;3626;42.656;23.312;2023-05-16T00:28:25;94257.34;;;12.68;100.00
7170;BME280;3626;42.656;23.312;2023-05-16T00:28:31;94253.97;;;12.68;100.00
7170;BME280;3626;42.656;23.312;2023-05-16T00:28:37;94258.13;;;12.69;100.00
7170;BME280;3626;42.656;23.312;2023-05-16T00:28:43;94263.31;;;12.69;100.00
7170;BME280;3626;42.656;23.312;2023-05-16T00:28:49;94257.16;;;12.70;100.00
7170;BME280;3626;42.656;23.312;2023-05-16T00:28:55;94254.75;;;12.68;100.00
7170;BME280;3626;42.656;23.312;2023-05-16T00:29:01;94261.53;;;12.69;100.00
7170;BME280;3626;42.656;23.312;2023-05-16T00:29:07;94263.31;;;12.69;100.00
7170;BME280;3626;42.656;23.312;2023-05-16T00:29:13;94260.72;;;12.69;100.00
7170;BME280;3626;42.656;23.312;2023-05-16T00:29:22;94260.56;;;12.70;100.00
7170;BME280;3626;42.656;23.312;2023-05-16T00:29:29;94257.97;;;12.70;100.00
7170;BME280;3626;42.656;23.312;2023-05-16T00:29:35;94260.56;;;12.70;100.00
7170;BME280;3626;42.656;23.312;2023-05-16T00:29:41;94252.78;;;12.70;100.00
7170;BME280;3626;42.656;23.312;2023-05-16T00:29:47;94257.97;;;12.70;100.00
7170;BME280;3626;42.656;23.312;2023-05-16T00:29:54;94261.34;;;12.71;100.00
7170;BME280;3626;42.656;23.312;2023-05-16T00:30:00;94258.78;;;12.71;100.00
7170;BME280;3626;42.656;23.312;2023-05-16T00:30:07;94261.34;;;12.71;100.00
7170;BME280;3626;42.656;23.312;2023-05-16T00:30:13;94255.19;;;12.72;100.00
7170;BME280;3626;42.656;23.312;2023-05-16T00:30:19;94253.59;;;12.71;100.00
7170;BME280;3626;42.656;23.312;2023-05-16T00:30:25;94264.75;;;12.71;100.00
7170;BME280;3626;42.656;23.312;2023-05-16T00:30:31;94254.38;;;12.71;100.00
7170;BME280;3626;42.656;23.312;2023-05-16T00:30:37;94258.78;;;12.71;100.00
7170;BME280;3626;42.656;23.312;2023-05-16T00:30:43;94262.31;;;12.70;100.00
7170;BME280;3626;42.656;23.312;2023-05-16T00:30:49;94257.16;;;12.70;100.00
7170;BME280;3626;42.656;23.312;2023-05-16T00:30:55;94261.53;;;12.69;100.00
7170;BME280;3626;42.656;23.312;2023-05-16T00:31:01;94259.94;;;12.68;100.00
7170;BME280;3626;42.656;23.312;2023-05-16T00:31:07;94257.53;;;12.67;100.00
7170;BME280;3626;42.656;23.312;2023-05-16T00:31:15;94252.53;;;12.65;100.00
7170;BME280;3626;42.656;23.312;2023-05-16T00:31:22;94256.13;;;12.64;100.00
7170;BME280;3626;42.656;23.312;2023-05-16T00:31:28;94253.34;;;12.66;100.00
7170;BME280;3626;42.656;23.312;2023-05-16T00:31:34;94256.13;;;12.64;100.00
7170;BME280;3626;42.656;23.312;2023-05-16T00:31:40;94257.72;;;12.65;100.00
7170;BME280;3626;42.656;23.312;2023-05-16T00:31:46;94260.28;;;12.65;100.00
7170;BME280;3626;42.656;23.312;2023-05-16T00:31:53;94255.94;;;12.66;100.00
7170;BME280;3626;42.656;23.312;2023-05-16T00:31:59;94254.31;;;12.65;100.00
7170;BME280;3626;42.656;23.312;2023-05-16T00:32:05;94253.34;;;12.66;100.00
7170;BME280;3626;42.656;23.312;2023-05-16T00:32:13;94256.91;;;12.65;100.00
7170;BME280;3626;42.656;23.312;2023-05-16T00:32:19;94249.94;;;12.65;100.00
7170;BME280;3626;42.656;23.312;2023-05-16T00:32:25;94261.13;;;12.66;100.00
7170;BME280;3626;42.656;23.312;2023-05-16T00:32:31;94255.94;;;12.66;100.00
7170;BME280;3626;42.656;23.312;2023-05-16T00:32:38;94258.53;;;12.66;100.00
7170;BME280;3626;42.656;23.312;2023-05-16T00:32:44;94257.53;;;12.67;100.00
7170;BME280;3626;42.656;23.312;2023-05-16T00:32:50;94252.38;;;12.67;100.00
7170;BME280;3626;42.656;23.312;2023-05-16T00:32:56;94256.75;;;12.66;100.00
7170;BME280;3626;42.656;23.312;2023-05-16T00:33:02;94257.53;;;12.67;100.00
7170;BME280;3626;42.656;23.312;2023-05-16T00:33:08;94256.53;;;12.68;100.00
7170;BME280;3626;42.656;23.312;2023-05-16T00:33:14;94253.16;;;12.67;100.00
7170;BME280;3626;42.656;23.312;2023-05-16T00:33:20;94254.16;;;12.66;100.00
7170;BME280;3626;42.656;23.312;2023-05-16T00:33:26;94252.38;;;12.67;100.00
7170;BME280;3626;42.656;23.312;2023-05-16T00:33:33;94254.16;;;12.66;100.00
7170;BME280;3626;42.656;23.312;2023-05-16T00:33:39;94249.78;;;12.67;100.00
7170;BME280;3626;42.656;23.312;2023-05-16T00:33:45;94251.56;;;12.66;100.00
7170;BME280;3626;42.656;23.312;2023-05-16T00:33:54;94254.94;;;12.67;100.00
7170;BME280;3626;42.656;23.312;2023-05-16T00:34:00;94254.94;;;12.67;100.00
7170;BME280;3626;42.656;23.312;2023-05-16T00:34:06;94254.94;;;12.67;100.00
7170;BME280;3626;42.656;23.312;2023-05-16T00:34:12;94256.75;;;12.66;100.00
7170;BME280;3626;42.656;23.312;2023-05-16T00:34:18;94253.16;;;12.67;100.00
7170;BME280;3626;42.656;23.312;2023-05-16T00:34:25;94255.75;;;12.67;100.00
7170;BME280;3626;42.656;23.312;2023-05-16T00:34:31;94251.38;;;12.68;100.00
7170;BME280;3626;42.656;23.312;2023-05-16T00:34:37;94259.13;;;12.68;100.00
7170;BME280;3626;42.656;23.312;2023-05-16T00:34:43;94259.94;;;12.68;100.00
7170;BME280;3626;42.656;23.312;2023-05-16T00:34:49;94248.78;;;12.68;100.00
7170;BME280;3626;42.656;23.312;2023-05-16T00:34:55;94248.78;;;12.68;100.00
7170;BME280;3626;42.656;23.312;2023-05-16T00:35:02;94244.59;;;12.67;100.00